Worth, Missouri
Current Conditions -  °F | °C
As of 7:53 AM on Saturday 20 Dec 2014 (Local Time) from KLWD Reporting Station
Haze Haze  
Wind Chill: 23°   Ceiling: 500
Heat Index: 31°   Visibility: 4mi
Dew Point: 30°   Wind: 9mph
Humidity: 96%   Direction: 190°S
Pressure: 30.16"   Gusts: NA
Location:  40.4°N, 94.44°W
Report Text: KLWD 201353Z AUTO 19008KT 4SM BR OVC005 M01/M01 A3016 RMK AO2 SLP225 I1000 T10061011
Loading
Personal Weather Stations






























Interactive Weather Map New forecast layout! Learn more

10-Day Weather Forecast

Advertisements
Track Severe Weather on mobile